Time;durP1;ratioP1;P1;durP2;ratioP2;P2;SDS_P1;SDS_P2;PMS_P1;PMS_P2;Temp;Humidity;BMP_temperature;BMP_pressure;BME280_temperature;BME280_humidity;BME280_pressure;Samples;Min_cycle;Max_cycle;Signal;HPM_P1;HPM_P2
2023/10/16 00:01:10;;;;;;;9.07;4.28;;;;;;;7.48;100.00;101386.63;8391787;28;19973;-58
2023/10/16 00:05:10;;;;;;;8.02;4.65;;;;;;;7.53;99.97;101389.91;8389779;28;20040;-59
2023/10/16 00:09:14;;;;;;;8.40;4.60;;;;;;;7.00;98.71;101381.72;8392802;28;20470;-58
2023/10/16 00:13:23;;;;;;;9.43;4.03;;;;;;;7.13;99.24;101381.78;8392792;28;20051;-57
2023/10/16 00:17:23;;;;;;;6.60;4.25;;;;;;;7.10;98.80;101377.50;8372041;28;20056;-59
2023/10/16 00:21:24;;;;;;;11.45;4.95;;;;;;;6.96;99.20;101377.53;8335995;28;20032;-59
2023/10/16 00:25:29;;;;;;;7.45;4.63;;;;;;;6.87;98.20;101372.72;8381256;28;20067;-57
2023/10/16 00:29:35;;;;;;;5.35;3.85;;;;;;;6.68;99.54;101374.81;8397771;28;20097;-59
2023/10/16 00:33:36;;;;;;;11.30;4.32;;;;;;;6.67;100.00;101362.34;8385854;28;20037;-59
2023/10/16 00:37:37;;;;;;;9.82;4.65;;;;;;;6.57;100.00;101371.94;8359424;28;20048;-59
2023/10/16 00:41:37;;;;;;;8.93;4.43;;;;;;;6.58;100.00;101372.78;8336164;28;20119;-59
2023/10/16 00:46:05;;;;;;;8.70;4.25;;;;;;;6.36;98.56;101375.94;8336256;28;20114;-59
2023/10/16 00:50:07;;;;;;;7.82;4.32;;;;;;;6.36;100.00;101370.56;8332963;28;20128;-59
2023/10/16 00:54:19;;;;;;;6.95;5.00;;;;;;;6.23;100.00;101368.69;8365337;28;20521;-57
2023/10/16 00:58:20;;;;;;;8.90;4.40;;;;;;;6.11;100.00;101373.00;8386044;28;20493;-59
2023/10/16 01:02:30;;;;;;;8.80;4.30;;;;;;;6.14;100.00;101366.56;8386999;28;20118;-60
2023/10/16 01:06:41;;;;;;;9.55;3.90;;;;;;;6.15;100.00;101368.28;8387235;28;20043;-60
2023/10/16 01:10:43;;;;;;;7.55;4.38;;;;;;;6.30;100.00;101362.88;8387277;28;20375;-58
2023/10/16 01:14:44;;;;;;;8.32;4.40;;;;;;;6.48;100.00;101364.44;8377645;28;20059;-59
2023/10/16 01:18:45;;;;;;;13.68;4.65;;;;;;;6.40;100.00;101364.03;8336738;28;20336;-58
2023/10/16 01:22:47;;;;;;;8.48;4.07;;;;;;;6.41;100.00;101364.91;8335946;28;20036;-58
2023/10/16 01:26:48;;;;;;;5.95;4.40;;;;;;;6.50;99.46;101364.34;8336587;28;20032;-59
2023/10/16 01:30:49;;;;;;;8.75;4.47;;;;;;;6.14;98.18;101364.75;8334478;28;20755;-59
2023/10/16 01:34:50;;;;;;;7.22;3.95;;;;;;;5.90;98.36;101363.53;8332556;28;20097;-59
2023/10/16 01:38:50;;;;;;;9.68;4.25;;;;;;;5.90;99.66;101359.03;8334335;28;20642;-59
2023/10/16 01:42:55;;;;;;;5.45;4.13;;;;;;;5.83;100.00;101365.69;8346420;28;20173;-58
2023/10/16 01:46:57;;;;;;;4.25;3.50;;;;;;;5.79;100.00;101365.94;8386359;28;20052;-57
2023/10/16 01:50:58;;;;;;;5.88;3.78;;;;;;;5.68;100.00;101360.34;8389792;28;20569;-57
2023/10/16 01:54:59;;;;;;;6.05;3.80;;;;;;;5.61;100.00;101350.91;8389428;28;20579;-56
2023/10/16 01:59:01;;;;;;;10.68;4.07;;;;;;;5.47;100.00;101350.84;8389900;28;20047;-60
2023/10/16 02:03:08;;;;;;;5.38;4.30;;;;;;;5.72;100.00;101356.53;8388871;28;20453;-59
2023/10/16 02:07:08;;;;;;;8.95;4.80;;;;;;;5.45;99.65;101352.75;8419510;28;20048;-60
2023/10/16 02:11:10;;;;;;;7.70;4.07;;;;;;;5.31;100.00;101348.16;8422558;28;20505;-59
2023/10/16 02:15:14;;;;;;;6.00;4.00;;;;;;;5.26;100.00;101339.53;8417713;28;20041;-58
2023/10/16 02:19:17;;;;;;;7.57;4.07;;;;;;;5.33;100.00;101343.59;8390053;28;20073;-59
2023/10/16 02:23:17;;;;;;;8.93;4.30;;;;;;;5.33;99.03;101334.69;8387055;28;20076;-59
2023/10/16 02:27:18;;;;;;;7.53;4.07;;;;;;;5.38;99.59;101343.34;8387957;28;20037;-57
2023/10/16 02:31:19;;;;;;;6.70;3.53;;;;;;;5.27;97.93;101352.00;8386839;28;20048;-58
2023/10/16 02:35:21;;;;;;;5.93;3.70;;;;;;;5.24;98.24;101335.19;8387212;28;20068;-58
2023/10/16 02:39:37;;;;;;;19.35;4.88;;;;;;;5.28;99.68;101336.78;8387744;28;20127;-59
2023/10/16 02:43:41;;;;;;;4.97;3.50;;;;;;;5.29;98.58;101341.19;8361486;28;20063;-58
2023/10/16 02:47:43;;;;;;;8.55;3.90;;;;;;;5.24;98.98;101348.59;8335746;28;20052;-58
2023/10/16 02:51:44;;;;;;;4.72;3.45;;;;;;;5.13;99.86;101343.00;8340128;28;20097;-58
2023/10/16 02:55:45;;;;;;;7.10;3.75;;;;;;;5.15;100.00;101335.72;8340131;28;20771;-58
2023/10/16 02:59:45;;;;;;;5.15;3.40;;;;;;;5.19;100.00;101337.28;8339184;28;20527;-59
2023/10/16 03:03:46;;;;;;;8.73;3.67;;;;;;;5.19;100.00;101348.03;8338701;28;20033;-59
2023/10/16 03:07:49;;;;;;;4.20;2.95;;;;;;;5.19;100.00;101350.69;8389020;28;20494;-57
2023/10/16 03:11:56;;;;;;;14.65;3.17;;;;;;;5.18;100.00;101347.16;8394012;28;20036;-60
2023/10/16 03:16:04;;;;;;;8.25;3.55;;;;;;;4.94;100.00;101345.81;8357557;28;20717;-59
2023/10/16 03:20:19;;;;;;;8.10;3.00;;;;;;;5.03;100.00;101341.78;8327444;28;20171;-59
2023/10/16 03:24:23;;;;;;;6.60;3.22;;;;;;;4.86;100.00;101341.84;8335591;28;20036;-60
2023/10/16 03:28:23;;;;;;;8.03;3.63;;;;;;;4.84;100.00;101343.75;8390796;28;20038;-58
2023/10/16 03:32:24;;;;;;;6.00;3.10;;;;;;;4.94;100.00;101334.28;8366265;28;20498;-60
2023/10/16 03:36:25;;;;;;;6.90;2.65;;;;;;;4.95;100.00;101330.63;8390937;28;20028;-58
2023/10/16 03:40:27;;;;;;;7.28;2.95;;;;;;;4.95;100.00;101330.63;8337585;28;20047;-59
2023/10/16 03:44:27;;;;;;;4.18;2.90;;;;;;;4.96;100.00;101325.19;8380969;28;20090;-56
2023/10/16 03:48:28;;;;;;;6.07;2.85;;;;;;;4.98;100.00;101319.75;8393738;28;20082;-60
2023/10/16 03:52:28;;;;;;;4.55;3.15;;;;;;;5.01;100.00;101322.25;8371728;28;20435;-59
2023/10/16 03:56:30;;;;;;;5.55;3.13;;;;;;;4.97;100.00;101323.38;8369733;28;20045;-56
2023/10/16 04:00:50;;;;;;;8.52;3.50;;;;;;;5.00;100.00;101331.25;8392710;28;20036;-57
2023/10/16 04:04:53;;;;;;;11.93;3.33;;;;;;;4.87;100.00;101330.19;8374258;28;20214;-59
2023/10/16 04:08:55;;;;;;;7.43;3.77;;;;;;;4.89;100.00;101328.28;8337726;28;20426;-59
2023/10/16 04:12:57;;;;;;;7.22;3.38;;;;;;;4.96;100.00;101329.66;8332778;28;20037;-59
2023/10/16 04:17:00;;;;;;;6.95;3.83;;;;;;;4.83;100.00;101323.28;8329041;28;20072;-59
2023/10/16 04:25:45;;;;;;;11.55;4.50;;;;;;;4.83;100.00;101315.22;8278049;27;20410;-60
2023/10/16 04:29:46;;;;;;;4.97;3.30;;;;;;;4.68;100.00;101318.75;8277028;28;20276;-60
2023/10/16 04:34:02;;;;;;;8.35;2.92;;;;;;;4.75;100.00;101314.78;8303385;28;20155;-59
2023/10/16 04:38:53;;;;;;;8.60;3.25;;;;;;;4.70;100.00;101298.13;8349825;28;20064;-59
2023/10/16 04:47:00;;;;;;;5.10;3.17;;;;;;;4.73;100.00;101306.00;8328968;28;20153;-58
2023/10/16 04:52:06;;;;;;;5.18;2.97;;;;;;;4.87;100.00;101293.56;8330545;28;20103;-60
2023/10/16 04:55:53;;;;;;;7.15;3.17;;;;;;;4.76;99.99;101289.75;8330852;28;20033;-59
2023/10/16 05:00:27;;;;;;;8.02;3.35;;;;;;;4.63;100.00;101291.38;8327454;28;20041;-59
2023/10/16 05:04:59;;;;;;;8.20;3.08;;;;;;;4.73;100.00;101296.13;8327776;28;20500;-59
2023/10/16 05:17:21;;;;;;;7.78;3.13;;;;;;;4.69;100.00;101285.66;8337410;28;20648;-60
2023/10/16 06:14:34;;;;;;;6.38;3.28;;;;;;;5.05;100.00;101297.00;8308691;28;20041;-57
2023/10/16 06:17:51;;;;;;;7.15;2.92;;;;;;;5.04;99.73;101301.53;8306250;28;20034;-58
2023/10/16 06:21:56;;;;;;;5.38;3.28;;;;;;;4.99;99.66;101303.59;8306187;28;20092;-60
2023/10/16 06:26:01;;;;;;;4.97;2.85;;;;;;;5.03;100.00;101306.97;8276956;28;20102;-60
2023/10/16 06:30:01;;;;;;;5.63;2.60;;;;;;;5.01;99.56;101304.38;8306371;28;20377;-58
2023/10/16 06:34:05;;;;;;;5.85;3.00;;;;;;;5.04;99.17;101300.63;8293750;28;20037;-59
2023/10/16 06:38:11;;;;;;;4.97;2.67;;;;;;;5.07;99.35;101300.47;8304311;28;20037;-60
2023/10/16 06:42:17;;;;;;;4.50;3.05;;;;;;;5.09;99.79;101298.56;8294500;28;20169;-59
2023/10/16 06:46:23;;;;;;;3.33;2.22;;;;;;;5.13;100.00;101298.31;8243603;28;20283;-60
2023/10/16 06:54:27;;;;;;;5.78;2.90;;;;;;;5.36;99.95;101302.34;8310149;28;20037;-59
2023/10/16 06:58:28;;;;;;;10.00;4.10;;;;;;;5.47;99.55;101299.91;8311991;28;20044;-59
2023/10/16 07:02:29;;;;;;;6.32;3.08;;;;;;;5.56;99.31;101307.41;8308892;28;20503;-59
2023/10/16 07:06:33;;;;;;;3.75;2.63;;;;;;;5.61;98.38;101297.25;8311873;28;20059;-59
2023/10/16 07:10:33;;;;;;;6.67;2.33;;;;;;;5.73;98.57;101307.28;8309316;28;20113;-58
2023/10/16 07:14:34;;;;;;;7.35;2.83;;;;;;;5.88;97.10;101311.75;8320707;28;20091;-60
2023/10/16 07:18:35;;;;;;;5.95;2.65;;;;;;;5.88;97.37;101311.75;8315368;28;20046;-60
2023/10/16 07:22:35;;;;;;;4.38;2.65;;;;;;;5.94;97.80;101306.03;8319680;28;20167;-59
2023/10/16 07:26:36;;;;;;;9.52;3.03;;;;;;;6.05;96.82;101311.63;8309874;28;20511;-60
2023/10/16 07:30:37;;;;;;;9.82;2.45;;;;;;;6.13;97.46;101311.16;8307643;28;20116;-60
2023/10/16 07:34:38;;;;;;;7.90;3.50;;;;;;;6.29;97.78;101312.81;8308464;28;20052;-60
2023/10/16 07:38:38;;;;;;;8.60;3.42;;;;;;;6.32;97.83;101306.38;8305759;28;20090;-60
2023/10/16 07:42:39;;;;;;;6.55;3.42;;;;;;;6.47;98.00;101314.38;8318450;28;20041;-59
2023/10/16 07:46:39;;;;;;;8.38;3.13;;;;;;;6.61;97.32;101306.31;8311749;28;20061;-59
2023/10/16 07:50:41;;;;;;;8.23;3.38;;;;;;;6.80;96.85;101298.81;8309853;28;20634;-60
2023/10/16 07:54:43;;;;;;;5.35;2.88;;;;;;;6.98;97.45;101292.25;8306019;28;20034;-59
2023/10/16 07:58:54;;;;;;;6.32;2.90;;;;;;;7.31;95.93;101300.81;8309994;28;20045;-59
2023/10/16 08:03:04;;;;;;;7.35;3.00;;;;;;;7.17;95.84;101298.16;8302337;28;20049;-60
2023/10/16 08:07:05;;;;;;;5.53;3.33;;;;;;;7.28;96.20;101301.00;8312059;28;20088;-60
2023/10/16 08:11:13;;;;;;;9.18;3.20;;;;;;;7.50;96.40;101312.06;8313667;28;20041;-59
2023/10/16 08:15:14;;;;;;;5.80;2.83;;;;;;;7.68;96.10;101305.47;8319552;28;20042;-59
2023/10/16 08:19:15;;;;;;;7.75;3.28;;;;;;;8.17;95.28;101304.81;8319519;28;20065;-59
2023/10/16 08:23:16;;;;;;;5.97;2.67;;;;;;;8.52;93.78;101305.94;8304141;28;20514;-61
2023/10/16 08:27:22;;;;;;;7.07;2.97;;;;;;;8.84;93.83;101315.31;8308654;28;20041;-59
2023/10/16 08:31:22;;;;;;;6.57;2.85;;;;;;;9.13;91.94;101316.75;8306951;28;20042;-59
2023/10/16 08:35:23;;;;;;;8.65;2.83;;;;;;;9.11;91.20;101318.66;8306156;28;20115;-59
2023/10/16 08:39:23;;;;;;;5.00;2.47;;;;;;;9.20;91.84;101323.41;8303166;28;20041;-62
2023/10/16 08:43:48;;;;;;;4.57;2.35;;;;;;;9.47;90.01;101310.56;8304720;28;20037;-59
2023/10/16 08:47:46;;;;;;;6.45;2.22;;;;;;;9.90;89.92;101309.06;8306041;28;20033;-59
2023/10/16 08:51:49;;;;;;;5.65;2.35;;;;;;;9.94;89.85;101311.41;8302488;28;20033;-58
2023/10/16 08:55:50;;;;;;;10.70;2.78;;;;;;;11.09;87.66;101302.25;8307933;28;20085;-59
2023/10/16 08:59:51;;;;;;;11.77;3.00;;;;;;;12.81;77.84;101304.56;8310763;28;20095;-59
2023/10/16 09:04:05;;;;;;;12.52;1.92;;;;;;;13.83;72.34;101306.03;8309026;28;20096;-59
2023/10/16 09:08:06;;;;;;;4.70;1.87;;;;;;;13.85;71.93;101304.88;8314275;28;20073;-60
2023/10/16 09:12:10;;;;;;;5.10;2.33;;;;;;;14.27;71.29;101310.91;8308427;28;20036;-60
2023/10/16 09:16:11;;;;;;;;;;;;;;;14.92;70.46;101305.44;8317203;28;20045;-60
2023/10/16 09:20:13;;;;;;;6.10;1.85;;;;;;;15.99;66.26;101310.13;8310870;28;19924;-60
2023/10/16 09:24:14;;;;;;;6.65;3.00;;;;;;;15.86;66.78;101309.66;8310288;28;20038;-60
2023/10/16 09:28:22;;;;;;;9.40;2.15;;;;;;;16.92;63.78;101303.88;8309930;28;20045;-61
2023/10/16 09:32:25;;;;;;;6.70;2.60;;;;;;;16.74;63.48;101296.78;8308528;28;20434;-60
2023/10/16 09:36:29;;;;;;;9.43;3.00;;;;;;;16.93;62.58;101296.56;8311264;28;20040;-61
2023/10/16 09:40:37;;;;;;;16.00;3.57;;;;;;;17.12;61.79;101301.78;8305958;28;20037;-59
2023/10/16 09:44:40;;;;;;;8.65;3.83;;;;;;;16.99;63.48;101301.38;8309371;28;20346;-59
2023/10/16 09:48:42;;;;;;;10.23;3.42;;;;;;;18.29;60.15;101294.22;8321475;28;20041;-60
2023/10/16 09:52:45;;;;;;;12.15;4.55;;;;;;;17.84;59.57;101293.81;8312062;28;20495;-60
2023/10/16 09:56:48;;;;;;;11.52;3.92;;;;;;;17.74;60.80;101284.06;8313367;28;20050;-59
2023/10/16 10:00:51;;;;;;;12.35;4.95;;;;;;;18.14;59.77;101284.97;8315131;28;20048;-58
2023/10/16 10:05:08;;;;;;;12.13;5.60;;;;;;;17.93;59.85;101281.88;8305248;28;20095;-57
2023/10/16 10:13:33;;;;;;;14.65;5.45;;;;;;;18.41;58.85;101273.72;8329971;27;20885;-57
2023/10/16 10:17:37;;;;;;;13.55;4.57;;;;;;;19.24;58.03;101275.88;8325409;28;20033;-58
2023/10/16 10:21:44;;;;;;;9.95;3.92;;;;;;;18.80;58.45;101276.56;8332231;28;20045;-57
2023/10/16 10:25:46;;;;;;;14.18;4.70;;;;;;;17.85;59.48;101270.94;8344437;28;20124;-57
2023/10/16 10:29:48;;;;;;;13.77;4.28;;;;;;;18.78;57.93;101273.13;8334591;28;20038;-58
2023/10/16 10:33:55;;;;;;;11.00;3.92;;;;;;;18.55;58.23;101273.03;8334549;28;20128;-57
2023/10/16 10:38:07;;;;;;;12.13;3.63;;;;;;;19.94;55.22;101264.88;8333364;28;20037;-57
2023/10/16 10:42:16;;;;;;;13.00;4.13;;;;;;;20.06;54.02;101257.94;8338323;28;20441;-57
2023/10/16 10:46:25;;;;;;;14.48;5.65;;;;;;;19.62;54.93;101256.84;8345170;28;20041;-58
2023/10/16 10:50:29;;;;;;;10.68;3.80;;;;;;;19.45;54.15;101259.72;8335476;28;20112;-57
2023/10/16 10:54:31;;;;;;;8.20;3.50;;;;;;;19.81;55.34;101245.41;8349776;28;20140;-57
2023/10/16 10:58:31;;;;;;;8.02;3.30;;;;;;;19.52;54.55;101238.75;8338559;28;20041;-58
2023/10/16 11:06:48;;;;;;;11.27;3.97;;;;;;;20.29;53.90;101236.81;8333983;28;20042;-60
2023/10/16 11:10:51;;;;;;;13.65;3.53;;;;;;;20.58;53.66;101228.59;8339202;28;20041;-57
2023/10/16 11:14:53;;;;;;;5.85;2.72;;;;;;;20.33;53.70;101218.91;8331060;28;20033;-58
2023/10/16 11:18:58;;;;;;;10.65;2.97;;;;;;;18.99;55.78;101222.19;8327194;28;20045;-58
2023/10/16 11:22:59;;;;;;;5.47;3.08;;;;;;;19.30;57.16;101208.53;8319862;28;20399;-57
2023/10/16 11:27:05;;;;;;;9.40;4.95;;;;;;;19.63;56.47;101217.41;8316750;28;20152;-57
2023/10/16 11:31:09;;;;;;;4.07;1.55;;;;;;;19.26;52.66;101209.91;8294833;28;20037;-57
2023/10/16 11:35:18;;;;;;;;;;;;;;;18.17;56.24;101212.63;8308956;28;20142;-59
2023/10/16 11:39:19;;;;;;;9.65;3.88;;;;;;;17.95;57.72;101197.75;8308462;28;19918;-56
2023/10/16 11:43:20;;;;;;;9.27;2.97;;;;;;;18.94;55.23;101191.72;8308904;28;20522;-57
2023/10/16 11:47:21;;;;;;;9.20;3.90;;;;;;;18.21;57.22;101192.91;8313036;28;20180;-58
2023/10/16 11:51:25;;;;;;;13.55;4.05;;;;;;;17.79;57.31;101181.34;8309299;28;20088;-57
2023/10/16 11:55:26;;;;;;;8.27;3.42;;;;;;;17.49;57.14;101168.31;8319366;28;20045;-57
2023/10/16 11:59:28;;;;;;;7.72;3.22;;;;;;;17.93;56.61;101161.47;8307498;28;20040;-58
2023/10/16 12:03:28;;;;;;;6.95;2.88;;;;;;;18.57;55.85;101168.78;8311918;28;20045;-61
2023/10/16 12:07:29;;;;;;;12.23;4.00;;;;;;;18.34;55.97;101171.38;8308732;28;20037;-61
2023/10/16 12:11:29;;;;;;;6.75;3.60;;;;;;;17.86;57.57;101174.16;8309210;28;20369;-58
2023/10/16 12:15:31;;;;;;;4.57;2.40;;;;;;;17.34;57.34;101170.84;8304011;28;20038;-58
2023/10/16 12:19:33;;;;;;;10.07;3.83;;;;;;;16.95;59.14;101166.09;8307334;28;20489;-59
2023/10/16 12:23:36;;;;;;;14.52;3.80;;;;;;;16.80;59.35;101165.06;8299195;28;20407;-58
2023/10/16 12:27:37;;;;;;;9.23;4.43;;;;;;;17.13;59.53;101151.31;8305559;28;20042;-59
2023/10/16 12:31:40;;;;;;;11.43;4.40;;;;;;;16.84;61.15;101139.13;8301688;28;20129;-58
2023/10/16 12:35:40;;;;;;;10.70;4.20;;;;;;;16.30;62.24;101140.38;8302507;28;20041;-59
2023/10/16 12:39:52;;;;;;;7.95;4.03;;;;;;;16.10;62.46;101132.59;8308421;28;20045;-58
2023/10/16 12:43:53;;;;;;;8.65;5.15;;;;;;;15.68;62.24;101138.75;8306712;28;20048;-58
2023/10/16 12:47:54;;;;;;;9.98;4.85;;;;;;;15.54;64.19;101136.59;8302854;28;20487;-58
2023/10/16 12:51:55;;;;;;;9.18;4.75;;;;;;;15.70;64.27;101130.41;8305958;28;20065;-58
2023/10/16 12:55:58;;;;;;;13.60;4.60;;;;;;;15.41;64.46;101136.13;8306063;28;20069;-58
2023/10/16 12:59:59;;;;;;;13.77;3.97;;;;;;;15.34;63.79;101126.84;8301382;28;20070;-57
2023/10/16 13:04:00;;;;;;;13.32;5.25;;;;;;;15.30;66.07;101132.75;8304474;28;20490;-58
2023/10/16 13:08:02;;;;;;;14.57;7.05;;;;;;;15.27;66.44;101124.88;8305410;28;20038;-58
2023/10/16 13:12:08;;;;;;;11.38;6.60;;;;;;;15.26;65.84;101134.06;8306839;28;20082;-57
2023/10/16 13:16:08;;;;;;;14.07;6.40;;;;;;;15.12;66.43;101130.03;8302013;28;20040;-57
2023/10/16 13:20:17;;;;;;;12.50;6.38;;;;;;;15.04;66.67;101132.66;8306490;28;20034;-58
2023/10/16 13:24:20;;;;;;;16.65;5.53;;;;;;;14.93;67.46;101130.16;8302159;28;20041;-60
2023/10/16 13:28:20;;;;;;;10.93;5.85;;;;;;;14.84;67.47;101125.63;8306418;28;20053;-60
2023/10/16 13:32:21;;;;;;;13.63;5.40;;;;;;;14.88;68.09;101127.03;8305422;28;20052;-57
2023/10/16 13:36:21;;;;;;;16.25;6.40;;;;;;;14.91;68.81;101126.72;8306099;28;20042;-58
2023/10/16 13:40:22;;;;;;;12.73;5.30;;;;;;;14.76;67.38;101127.41;8309111;28;20416;-57
2023/10/16 13:44:24;;;;;;;6.25;3.38;;;;;;;14.61;65.76;101129.78;8309033;28;20033;-59
2023/10/16 13:48:28;;;;;;;17.65;7.35;;;;;;;14.59;68.99;101126.38;8307293;28;20495;-59
2023/10/16 13:52:29;;;;;;;14.48;7.53;;;;;;;14.62;69.43;101117.03;8306804;28;20045;-59
2023/10/16 13:56:29;;;;;;;14.50;6.75;;;;;;;14.64;69.58;101121.31;8311777;28;20177;-58
2023/10/16 14:00:35;;;;;;;11.88;5.90;;;;;;;14.55;69.21;101124.94;8323416;28;20051;-59
2023/10/16 14:04:35;;;;;;;11.05;6.47;;;;;;;14.48;69.11;101123.84;8370345;28;20494;-59
2023/10/16 14:08:37;;;;;;;12.10;6.15;;;;;;;14.52;71.03;101103.47;8343038;28;20463;-59
2023/10/16 14:12:37;;;;;;;14.30;7.15;;;;;;;14.55;70.59;101100.44;8347327;28;20067;-60
2023/10/16 14:16:41;;;;;;;14.63;6.70;;;;;;;14.50;69.46;101099.19;8366146;28;20041;-59
2023/10/16 14:20:45;;;;;;;14.07;5.90;;;;;;;14.47;69.34;101094.91;8372318;28;20048;-59
2023/10/16 14:24:45;;;;;;;10.73;6.30;;;;;;;14.48;70.20;101095.75;8373146;28;20275;-60
2023/10/16 14:28:50;;;;;;;14.05;7.93;;;;;;;14.65;70.66;101084.94;8371753;28;20071;-60
2023/10/16 14:32:51;;;;;;;16.60;7.75;;;;;;;14.50;70.05;101085.59;8365667;28;20288;-59
2023/10/16 14:36:54;;;;;;;13.82;5.95;;;;;;;14.45;69.86;101086.03;8366898;28;20048;-59
2023/10/16 14:40:55;;;;;;;10.00;5.93;;;;;;;14.28;69.56;101083.28;8345198;28;20045;-60
2023/10/16 14:44:56;;;;;;;15.82;6.53;;;;;;;14.29;69.52;101093.13;8366207;28;20040;-62
2023/10/16 14:48:56;;;;;;;12.48;6.47;;;;;;;14.33;70.08;101080.97;8370247;28;20036;-62
2023/10/16 14:52:57;;;;;;;13.52;4.90;;;;;;;14.24;69.61;101077.28;8363646;28;20453;-59
2023/10/16 14:56:59;;;;;;;5.93;3.90;;;;;;;14.18;69.33;101075.13;8367508;28;20131;-59
2023/10/16 15:01:09;;;;;;;12.00;2.80;;;;;;;14.06;68.27;101068.16;8371777;28;20095;-59
2023/10/16 15:05:12;;;;;;;6.80;2.55;;;;;;;14.11;69.19;101060.41;8372014;28;20049;-59
2023/10/16 15:09:16;;;;;;;4.13;2.03;;;;;;;14.04;69.78;101064.75;8373611;28;20037;-59
2023/10/16 15:13:17;;;;;;;3.90;1.90;;;;;;;14.01;70.70;101070.50;8355786;28;20140;-60
2023/10/16 15:17:17;;;;;;;5.07;1.70;;;;;;;13.98;69.57;101059.03;8350440;28;20072;-60
2023/10/16 15:21:18;;;;;;;4.68;1.33;;;;;;;13.96;69.34;101061.91;8334042;28;20163;-59
2023/10/16 15:25:19;;;;;;;7.20;1.50;;;;;;;13.97;69.77;101057.34;8348193;28;20048;-60
2023/10/16 15:29:19;;;;;;;5.80;1.83;;;;;;;13.85;69.26;101059.41;8344688;28;20139;-59
2023/10/16 15:33:21;;;;;;;9.75;1.70;;;;;;;13.76;69.89;101050.25;8361186;28;20052;-60
2023/10/16 15:37:21;;;;;;;4.32;1.13;;;;;;;13.73;70.62;101055.13;8344891;28;20490;-58
2023/10/16 15:41:22;;;;;;;7.22;1.73;;;;;;;13.70;70.59;101056.28;8325244;28;20460;-59
2023/10/16 15:45:25;;;;;;;7.20;1.27;;;;;;;13.58;70.31;101051.16;8324392;28;21286;-60
2023/10/16 15:49:25;;;;;;;2.15;0.98;;;;;;;13.41;71.50;101043.75;8340697;28;20131;-59
2023/10/16 15:53:26;;;;;;;2.80;1.42;;;;;;;13.39;72.38;101040.34;8323074;28;20140;-59
2023/10/16 15:57:27;;;;;;;4.50;1.83;;;;;;;13.28;73.65;101040.50;8341173;28;20048;-59
2023/10/16 16:01:27;;;;;;;3.17;1.63;;;;;;;13.22;73.92;101038.38;8350040;28;20415;-59
2023/10/16 16:05:31;;;;;;;4.72;1.67;;;;;;;13.14;73.61;101046.38;8370052;28;20237;-60
2023/10/16 16:09:34;;;;;;;7.32;2.40;;;;;;;13.03;75.18;101043.81;8366321;28;20048;-61
2023/10/16 16:13:36;;;;;;;4.03;1.90;;;;;;;13.05;74.80;101039.13;8363911;28;20490;-59
2023/10/16 16:17:37;;;;;;;7.05;2.67;;;;;;;13.01;74.75;101040.38;8370417;28;20409;-62
2023/10/16 16:21:37;;;;;;;4.35;3.75;;;;;;;13.11;74.60;101052.09;8372266;28;20106;-59
2023/10/16 16:25:38;;;;;;;4.85;1.92;;;;;;;13.07;75.06;101053.38;8372177;28;20048;-58
2023/10/16 16:29:38;;;;;;;3.17;1.45;;;;;;;12.89;77.90;101041.47;8364732;28;20041;-58
2023/10/16 16:33:39;;;;;;;5.32;3.10;;;;;;;12.39;80.86;101037.16;8368318;28;20032;-60
2023/10/16 16:37:40;;;;;;;10.95;1.73;;;;;;;12.41;79.51;101040.59;8363155;28;20045;-59
2023/10/16 16:41:41;;;;;;;9.75;2.03;;;;;;;12.19;81.50;101035.38;8370530;28;20458;-59
2023/10/16 16:45:41;;;;;;;6.10;2.22;;;;;;;12.18;80.56;101049.94;8379766;28;20711;-59
2023/10/16 16:49:42;;;;;;;5.32;2.00;;;;;;;12.22;80.63;101056.78;8354126;28;20068;-58
2023/10/16 16:53:43;;;;;;;5.57;2.20;;;;;;;12.17;82.77;101053.66;8368616;28;20579;-60
2023/10/16 16:57:44;;;;;;;6.82;1.80;;;;;;;12.01;83.85;101061.44;8364581;28;20044;-59
2023/10/16 17:01:46;;;;;;;7.00;1.85;;;;;;;11.68;85.11;101066.13;8364967;28;20040;-59
2023/10/16 17:05:47;;;;;;;5.97;2.33;;;;;;;11.56;86.25;101064.44;8369535;28;20471;-63
2023/10/16 17:09:48;;;;;;;6.95;2.75;;;;;;;11.47;87.51;101062.53;8377762;28;20148;-63
2023/10/16 17:13:48;;;;;;;3.78;2.28;;;;;;;11.10;89.41;101066.69;8385170;28;20341;-59
2023/10/16 17:17:53;;;;;;;9.55;4.18;;;;;;;10.94;90.83;101065.41;8375470;28;20039;-59
2023/10/16 17:21:54;;;;;;;8.68;4.70;;;;;;;10.93;91.25;101058.28;8368937;28;20140;-58
2023/10/16 17:25:55;;;;;;;3.05;2.00;;;;;;;11.19;89.82;101060.50;8369269;28;20032;-61
2023/10/16 17:29:56;;;;;;;9.93;3.40;;;;;;;11.08;89.46;101073.22;8369522;28;20032;-61
2023/10/16 17:33:56;;;;;;;14.38;4.57;;;;;;;10.59;92.29;101065.69;8362945;28;20061;-60
2023/10/16 17:37:56;;;;;;;9.52;3.15;;;;;;;10.54;93.87;101067.91;8366912;28;20063;-58
2023/10/16 17:41:57;;;;;;;37.75;9.45;;;;;;;10.41;93.85;101059.09;8382214;28;20272;-61
2023/10/16 17:45:58;;;;;;;16.25;4.63;;;;;;;10.52;94.04;101069.84;8334264;28;20165;-61
2023/10/16 17:49:58;;;;;;;23.75;5.13;;;;;;;10.46;94.25;101059.56;8348187;28;20036;-61
2023/10/16 17:53:59;;;;;;;13.98;4.07;;;;;;;10.51;93.21;101046.53;8369821;28;20044;-60
2023/10/16 17:58:00;;;;;;;17.65;3.42;;;;;;;10.48;93.64;101049.47;8377556;28;20630;-61
2023/10/16 18:02:02;;;;;;;11.10;3.95;;;;;;;10.51;93.44;101062.75;8376835;28;20037;-61
2023/10/16 18:06:03;;;;;;;49.55;13.02;;;;;;;10.47;93.19;101072.09;8365843;28;20032;-61
2023/10/16 18:10:04;;;;;;;10.88;4.43;;;;;;;10.63;92.89;101055.44;8337917;28;20039;-61
2023/10/16 18:14:06;;;;;;;16.17;6.05;;;;;;;10.66;91.85;101053.38;8366102;28;20043;-62
2023/10/16 18:18:07;;;;;;;37.47;12.43;;;;;;;10.67;92.35;101048.81;8366220;28;20124;-63
2023/10/16 18:22:08;;;;;;;13.55;5.95;;;;;;;10.65;93.12;101038.13;8374671;28;20032;-62
2023/10/16 18:26:08;;;;;;;6.70;3.83;;;;;;;10.52;93.70;101042.00;8364185;28;20074;-60
2023/10/16 18:30:09;;;;;;;7.80;3.45;;;;;;;10.51;93.35;101041.13;8367596;28;20048;-60
2023/10/16 18:34:13;;;;;;;19.92;7.35;;;;;;;10.20;95.25;101039.22;8355884;28;20032;-61
2023/10/16 18:38:14;;;;;;;9.73;5.00;;;;;;;10.33;94.72;101037.22;8372439;28;20029;-60
2023/10/16 18:42:15;;;;;;;13.80;6.93;;;;;;;10.29;94.51;101046.59;8372323;28;20442;-58
2023/10/16 18:46:15;;;;;;;15.77;6.72;;;;;;;10.22;94.20;101039.09;8373353;28;20446;-62
2023/10/16 18:50:17;;;;;;;17.83;7.57;;;;;;;10.22;95.61;101039.97;8372191;28;20078;-62
2023/10/16 18:54:17;;;;;;;12.07;6.25;;;;;;;10.34;94.50;101040.81;8369736;28;20434;-59
2023/10/16 18:58:19;;;;;;;14.35;6.82;;;;;;;10.42;94.11;101031.06;8369482;28;20033;-59
2023/10/16 19:02:19;;;;;;;10.82;5.93;;;;;;;10.44;93.75;101039.91;8365553;28;20440;-65
2023/10/16 19:06:21;;;;;;;9.63;5.75;;;;;;;10.54;95.67;101035.47;8369335;28;20036;-60
2023/10/16 19:10:24;;;;;;;17.50;7.43;;;;;;;10.14;95.48;101039.72;8369475;28;20181;-59
2023/10/16 19:14:26;;;;;;;24.85;8.63;;;;;;;10.20;96.41;101036.53;8371416;28;20040;-60
2023/10/16 19:18:29;;;;;;;12.02;6.40;;;;;;;10.16;96.64;101028.81;8366581;28;20184;-60
2023/10/16 19:22:29;;;;;;;10.25;6.18;;;;;;;10.20;95.62;101036.53;8370432;28;20040;-60
2023/10/16 19:26:29;;;;;;;12.65;6.60;;;;;;;10.16;95.61;101035.06;8365652;28;20131;-59
2023/10/16 19:30:30;;;;;;;14.20;6.90;;;;;;;10.14;95.47;101031.63;8365889;28;20052;-59
2023/10/16 19:34:30;;;;;;;10.70;5.75;;;;;;;10.22;95.81;101050.78;8369951;28;20501;-60
2023/10/16 19:38:31;;;;;;;12.00;6.40;;;;;;;10.32;94.16;101048.16;8365273;28;20048;-60
2023/10/16 19:42:32;;;;;;;9.48;6.15;;;;;;;10.34;94.10;101044.34;8367200;28;20040;-60
2023/10/16 19:46:32;;;;;;;8.93;5.45;;;;;;;10.32;93.27;101040.94;8370644;28;20045;-59
2023/10/16 19:50:35;;;;;;;9.95;5.55;;;;;;;10.00;94.73;101039.94;8365670;28;20144;-60
2023/10/16 19:54:37;;;;;;;13.02;6.00;;;;;;;9.69;98.59;101038.00;8365783;28;20041;-59
2023/10/16 19:58:41;;;;;;;11.37;6.37;;;;;;;9.74;99.20;101043.91;8363828;28;20186;-60
2023/10/16 20:02:45;;;;;;;12.55;6.57;;;;;;;9.74;98.14;101043.91;8364557;28;20056;-59
2023/10/16 20:06:45;;;;;;;12.80;6.18;;;;;;;9.84;98.14;101055.66;8366426;28;20506;-59
2023/10/16 20:10:46;;;;;;;16.13;7.07;;;;;;;10.10;97.11;101057.19;8373175;28;20538;-60